Time;durP1;ratioP1;P1;durP2;ratioP2;P2;SDS_P1;SDS_P2;PMS_P1;PMS_P2;Temp;Humidity;BMP_temperature;BMP_pressure;BME280_temperature;BME280_humidity;BME280_pressure;Samples;Min_cycle;Max_cycle;Signal;HPM_P1;HPM_P2
2022/03/08 00:01:04;;;;;;;28.60;10.15;;;4.20;61.60;;;;;;5001329;28;20088;-79
2022/03/08 00:03:31;;;;;;;31.50;10.15;;;4.20;61.50;;;;;;5001967;28;20057;-79
2022/03/08 00:05:58;;;;;;;18.83;8.60;;;4.20;61.80;;;;;;5002485;28;20042;-79
2022/03/08 00:08:26;;;;;;;29.67;9.43;;;4.40;61.40;;;;;;4983470;28;20494;-79
2022/03/08 00:10:53;;;;;;;24.83;8.82;;;4.50;60.90;;;;;;4998081;28;20046;-80
2022/03/08 00:13:20;;;;;;;25.30;10.05;;;4.70;60.10;;;;;;4996762;28;20106;-80
2022/03/08 00:15:49;;;;;;;25.00;9.00;;;4.70;59.60;;;;;;5000292;28;20042;-80
2022/03/08 00:18:17;;;;;;;25.02;8.68;;;4.70;58.90;;;;;;5011459;28;20050;-79
2022/03/08 00:20:44;;;;;;;25.70;9.35;;;4.80;57.90;;;;;;4997744;28;20444;-80
2022/03/08 00:23:11;;;;;;;25.27;8.30;;;4.80;57.70;;;;;;5017569;28;20049;-79
2022/03/08 00:25:38;;;;;;;20.73;9.10;;;4.80;57.50;;;;;;5016393;28;20050;-79
2022/03/08 00:28:06;;;;;;;27.65;9.70;;;4.80;57.00;;;;;;5005543;28;20056;-79
2022/03/08 00:30:33;;;;;;;26.17;8.35;;;4.70;56.70;;;;;;4986578;28;20113;-80
2022/03/08 00:33:00;;;;;;;24.63;9.00;;;4.50;57.00;;;;;;5015601;28;20447;-80
2022/03/08 00:35:27;;;;;;;24.92;9.45;;;4.60;57.00;;;;;;4987693;28;20046;-79
2022/03/08 00:37:55;;;;;;;27.17;10.00;;;4.70;56.80;;;;;;4984842;28;20090;-79
2022/03/08 00:40:23;;;;;;;25.52;9.02;;;4.60;56.90;;;;;;5017295;28;20046;-79
2022/03/08 00:42:52;;;;;;;19.95;8.32;;;4.40;57.30;;;;;;5019144;28;20046;-80
2022/03/08 00:45:20;;;;;;;23.45;9.02;;;4.20;57.40;;;;;;4987866;28;20115;-80
2022/03/08 00:47:47;;;;;;;24.30;8.00;;;4.50;57.30;;;;;;5002586;28;20543;-79
2022/03/08 00:50:18;;;;;;;24.73;9.48;;;4.70;56.70;;;;;;5005157;28;20030;-79
2022/03/08 00:52:47;;;;;;;24.73;8.55;;;4.60;56.80;;;;;;5000375;28;20049;-80
2022/03/08 00:55:15;;;;;;;25.13;9.65;;;4.60;56.80;;;;;;5018619;28;20055;-80
2022/03/08 00:57:43;;;;;;;22.00;8.57;;;4.60;57.20;;;;;;5003367;28;20136;-79
2022/03/08 01:00:12;;;;;;;27.00;9.82;;;4.70;56.70;;;;;;5002408;28;20049;-80
2022/03/08 01:02:40;;;;;;;22.38;8.75;;;4.70;56.90;;;;;;5000136;28;20074;-80
2022/03/08 01:05:08;;;;;;;27.92;8.70;;;4.70;56.60;;;;;;4986209;28;20056;-80
2022/03/08 01:07:35;;;;;;;29.80;10.52;;;4.80;56.30;;;;;;5015256;28;20524;-79
2022/03/08 01:10:05;;;;;;;27.85;9.05;;;4.60;56.20;;;;;;4984529;28;20084;-79
2022/03/08 01:12:32;;;;;;;23.80;8.10;;;4.80;56.60;;;;;;5002254;28;20050;-80
2022/03/08 01:15:01;;;;;;;23.92;9.27;;;4.70;56.80;;;;;;5017514;28;20126;-79
2022/03/08 01:17:28;;;;;;;20.80;8.23;;;4.70;56.60;;;;;;5017604;28;20047;-79
2022/03/08 01:19:56;;;;;;;24.33;9.23;;;4.80;56.80;;;;;;5001987;28;20456;-79
2022/03/08 01:22:23;;;;;;;28.92;10.45;;;4.90;56.50;;;;;;4998048;28;20046;-79
2022/03/08 01:24:53;;;;;;;25.33;9.20;;;4.80;56.50;;;;;;4985698;28;20078;-80
2022/03/08 01:27:20;;;;;;;32.38;11.02;;;4.40;58.30;;;;;;4999792;28;20034;-80
2022/03/08 01:29:47;;;;;;;25.85;9.57;;;4.40;57.20;;;;;;4985546;28;20067;-80
2022/03/08 01:32:14;;;;;;;29.98;9.05;;;4.60;58.10;;;;;;5002370;28;20053;-79
2022/03/08 01:34:42;;;;;;;25.17;9.40;;;4.60;57.80;;;;;;5001461;28;20401;-80
2022/03/08 01:37:11;;;;;;;25.52;9.73;;;4.60;57.00;;;;;;5000472;28;20084;-80
2022/03/08 01:39:38;;;;;;;24.02;9.02;;;4.40;57.40;;;;;;4984017;28;20136;-79
2022/03/08 01:42:11;;;;;;;24.88;8.98;;;4.70;57.20;;;;;;5003035;28;20046;-79
2022/03/08 01:44:42;;;;;;;;;;;4.60;57.10;;;;;;5000816;28;20054;-80
2022/03/08 01:47:21;;;;;;;23.20;8.38;;;4.30;57.70;;;;;;4983279;28;20328;-80
2022/03/08 01:49:52;;;;;;;24.90;9.05;;;4.10;57.60;;;;;;5002958;28;20049;-80
2022/03/08 01:52:24;;;;;;;26.17;8.93;;;3.70;58.20;;;;;;4985579;28;20038;-80
2022/03/08 01:54:52;;;;;;;24.48;9.48;;;3.60;59.00;;;;;;5002235;28;20121;-79
2022/03/08 01:57:25;;;;;;;23.20;9.15;;;3.60;59.70;;;;;;4983994;28;20490;-80
2022/03/08 01:59:53;;;;;;;23.13;7.88;;;3.40;60.20;;;;;;5000694;28;20081;-79
2022/03/08 02:02:21;;;;;;;28.88;9.00;;;3.10;61.10;;;;;;5015935;28;20037;-79
2022/03/08 02:04:49;;;;;;;21.65;8.60;;;3.00;62.10;;;;;;5016859;28;20050;-79
2022/03/08 02:07:16;;;;;;;28.80;10.15;;;3.20;62.30;;;;;;5002156;28;20046;-79
2022/03/08 02:09:43;;;;;;;31.23;9.25;;;3.40;62.10;;;;;;5001652;28;20040;-80
2022/03/08 02:12:14;;;;;;;25.88;9.25;;;3.60;60.80;;;;;;4999364;28;20057;-80
2022/03/08 02:14:44;;;;;;;26.85;9.18;;;3.70;61.20;;;;;;4984403;28;20042;-80
2022/03/08 02:17:11;;;;;;;25.35;9.05;;;3.90;60.70;;;;;;4998427;28;20564;-79
2022/03/08 02:19:38;;;;;;;28.58;10.48;;;3.90;60.20;;;;;;5000713;28;20054;-79
2022/03/08 02:22:09;;;;;;;25.88;9.40;;;3.80;60.90;;;;;;4999235;28;20585;-79
2022/03/08 02:24:36;;;;;;;28.65;9.00;;;3.70;61.70;;;;;;4997935;28;20045;-80
2022/03/08 02:27:08;;;;;;;24.50;9.60;;;3.70;61.40;;;;;;4983165;28;20505;-80
2022/03/08 02:29:35;;;;;;;23.65;8.55;;;3.60;61.10;;;;;;4999559;28;20065;-79
2022/03/08 02:32:02;;;;;;;26.48;9.23;;;3.70;61.00;;;;;;4999951;28;20840;-79
2022/03/08 02:34:29;;;;;;;26.50;8.65;;;3.60;61.30;;;;;;4999381;28;20489;-79
2022/03/08 02:37:08;;;;;;;26.02;9.55;;;3.50;61.70;;;;;;4997060;28;20107;-79
2022/03/08 02:39:36;;;;;;;27.00;8.88;;;3.60;61.80;;;;;;4999468;28;20040;-79
2022/03/08 02:42:04;;;;;;;33.25;10.02;;;3.50;62.20;;;;;;5011938;28;20285;-79
2022/03/08 02:44:31;;;;;;;26.95;9.18;;;3.50;61.70;;;;;;4998701;28;20049;-80
2022/03/08 02:47:03;;;;;;;26.17;10.25;;;3.60;61.70;;;;;;5000114;28;20046;-78
2022/03/08 02:49:31;;;;;;;34.95;11.68;;;3.70;61.70;;;;;;4999414;28;20054;-79
2022/03/08 02:51:59;;;;;;;23.67;8.70;;;3.80;61.20;;;;;;4999415;28;20042;-80
2022/03/08 02:54:26;;;;;;;30.70;10.52;;;3.90;61.30;;;;;;5000904;28;20042;-79
2022/03/08 02:56:54;;;;;;;28.77;9.75;;;3.70;62.00;;;;;;4986612;28;20041;-79
2022/03/08 02:59:24;;;;;;;27.58;10.02;;;3.70;62.00;;;;;;5013202;28;20112;-79
2022/03/08 03:01:51;;;;;;;26.58;10.95;;;3.60;62.40;;;;;;4997232;28;20049;-79
2022/03/08 03:04:18;;;;;;;26.95;10.52;;;3.70;61.50;;;;;;5002550;28;20042;-79
2022/03/08 03:06:46;;;;;;;27.00;10.23;;;3.70;61.60;;;;;;4987737;28;20053;-79
2022/03/08 03:09:13;;;;;;;25.77;9.60;;;3.90;61.50;;;;;;5000534;28;23187;-79
2022/03/08 03:11:40;;;;;;;28.85;9.00;;;3.50;61.40;;;;;;4994341;28;20053;-79
2022/03/08 03:14:08;;;;;;;29.35;9.25;;;3.40;62.10;;;;;;4985314;28;20065;-79
2022/03/08 03:16:35;;;;;;;24.48;10.25;;;3.60;62.30;;;;;;4980086;28;20100;-79
2022/03/08 03:19:02;;;;;;;27.08;8.90;;;3.70;61.30;;;;;;5013513;28;20053;-79
2022/03/08 03:21:29;;;;;;;26.27;8.98;;;3.70;61.70;;;;;;4985498;28;20081;-79
2022/03/08 03:23:56;;;;;;;23.40;8.30;;;3.50;61.70;;;;;;4999413;28;20108;-79
2022/03/08 03:26:23;;;;;;;23.55;7.45;;;3.70;61.60;;;;;;4997527;28;20050;-80
2022/03/08 03:28:51;;;;;;;24.30;8.15;;;3.70;61.60;;;;;;4997295;28;20053;-78
2022/03/08 03:31:18;;;;;;;24.92;8.60;;;3.80;60.90;;;;;;4997102;28;20497;-79
2022/03/08 03:33:45;;;;;;;22.35;7.53;;;3.60;61.10;;;;;;4999030;28;20046;-79
2022/03/08 03:36:12;;;;;;;28.08;7.13;;;3.70;60.80;;;;;;4984268;28;20072;-79
2022/03/08 03:38:40;;;;;;;20.83;6.85;;;3.70;61.10;;;;;;5001704;28;20045;-79
2022/03/08 03:41:07;;;;;;;22.48;7.38;;;3.70;60.60;;;;;;4998348;28;20074;-79
2022/03/08 03:43:34;;;;;;;23.65;8.82;;;3.70;61.00;;;;;;4998991;28;20095;-79
2022/03/08 03:46:01;;;;;;;24.15;8.05;;;3.60;61.00;;;;;;4999345;28;20050;-80
2022/03/08 03:48:29;;;;;;;20.75;7.57;;;3.50;61.50;;;;;;5000538;28;22334;-80
2022/03/08 03:50:56;;;;;;;24.75;7.43;;;3.40;61.20;;;;;;4981931;28;20070;-79
2022/03/08 03:53:24;;;;;;;23.35;8.10;;;3.50;61.00;;;;;;4999750;28;20054;-79
2022/03/08 03:55:51;;;;;;;23.20;8.32;;;3.50;60.90;;;;;;4982120;28;20046;-79
2022/03/08 03:58:18;;;;;;;18.92;5.88;;;3.20;61.80;;;;;;5001968;28;20073;-80
2022/03/08 04:00:45;;;;;;;20.08;8.10;;;3.10;61.90;;;;;;4983649;28;20049;-79
2022/03/08 04:03:15;;;;;;;22.05;7.40;;;3.20;61.90;;;;;;5004984;28;20092;-80
2022/03/08 04:05:42;;;;;;;27.98;8.07;;;3.20;62.00;;;;;;4998697;28;20046;-79
2022/03/08 04:08:09;;;;;;;17.30;7.32;;;3.20;61.90;;;;;;4999993;28;20050;-79
2022/03/08 04:10:37;;;;;;;25.10;8.50;;;3.20;61.80;;;;;;5001618;28;20857;-79
2022/03/08 04:13:04;;;;;;;21.30;7.97;;;3.30;61.40;;;;;;5001233;28;20050;-80
2022/03/08 04:15:31;;;;;;;16.80;6.75;;;3.20;61.70;;;;;;5000571;28;20037;-80
2022/03/08 04:17:58;;;;;;;24.35;8.02;;;3.20;61.50;;;;;;4988804;28;20065;-79
2022/03/08 04:20:25;;;;;;;22.95;7.97;;;3.30;61.50;;;;;;5016439;28;20050;-79
2022/03/08 04:22:52;;;;;;;23.23;7.38;;;3.10;61.70;;;;;;5001863;28;20049;-79
2022/03/08 04:25:19;;;;;;;19.27;6.85;;;3.10;61.90;;;;;;4999817;28;20062;-80
2022/03/08 04:27:46;;;;;;;23.27;7.20;;;3.00;62.20;;;;;;5000354;28;20075;-79
2022/03/08 04:30:13;;;;;;;22.77;7.70;;;2.90;62.30;;;;;;5001563;28;20046;-79
2022/03/08 04:32:40;;;;;;;19.65;7.90;;;2.80;62.90;;;;;;4982440;28;20437;-79
2022/03/08 04:35:08;;;;;;;23.88;7.40;;;2.60;63.30;;;;;;4997923;28;20485;-79
2022/03/08 04:37:36;;;;;;;23.13;8.65;;;2.80;63.10;;;;;;5000659;28;20046;-79
2022/03/08 04:40:07;;;;;;;22.95;6.97;;;2.60;62.80;;;;;;5003266;28;20519;-79
2022/03/08 04:42:34;;;;;;;22.23;8.07;;;2.80;62.50;;;;;;4976966;28;20046;-79
2022/03/08 04:45:02;;;;;;;24.45;9.10;;;2.70;62.90;;;;;;4997804;28;20141;-79
2022/03/08 04:47:29;;;;;;;29.38;10.13;;;2.40;63.70;;;;;;4984778;28;20301;-79
2022/03/08 04:49:56;;;;;;;24.90;8.95;;;2.40;64.10;;;;;;4987167;28;20042;-79
2022/03/08 04:52:23;;;;;;;30.42;10.13;;;2.40;63.70;;;;;;5002092;28;20045;-79
2022/03/08 04:54:50;;;;;;;31.17;9.68;;;2.20;63.90;;;;;;5000877;28;20050;-79
2022/03/08 04:57:17;;;;;;;29.67;9.68;;;2.20;64.30;;;;;;5000001;28;20089;-79
2022/03/08 04:59:44;;;;;;;29.98;10.55;;;2.20;64.50;;;;;;4989481;28;20046;-80
2022/03/08 05:02:11;;;;;;;35.88;10.30;;;2.30;64.60;;;;;;5002265;28;20561;-79
2022/03/08 05:04:39;;;;;;;22.52;7.70;;;2.20;64.50;;;;;;5003181;28;20684;-80
2022/03/08 05:07:06;;;;;;;25.77;9.88;;;2.00;65.00;;;;;;5001252;28;20383;-79
2022/03/08 05:09:33;;;;;;;26.42;10.02;;;1.80;65.30;;;;;;5001146;28;20056;-80
2022/03/08 05:12:00;;;;;;;34.42;11.95;;;1.60;65.40;;;;;;5001554;28;20211;-79
2022/03/08 05:14:27;;;;;;;27.70;10.88;;;1.80;65.20;;;;;;5003317;28;20053;-79
2022/03/08 05:16:54;;;;;;;30.02;10.15;;;1.90;65.20;;;;;;5002481;28;20501;-79
2022/03/08 05:19:21;;;;;;;32.85;9.93;;;1.80;65.90;;;;;;4984331;28;20081;-79
2022/03/08 05:21:49;;;;;;;26.13;10.50;;;1.90;65.50;;;;;;5003895;28;20049;-79
2022/03/08 05:24:15;;;;;;;25.83;10.32;;;2.10;64.80;;;;;;4999447;28;20096;-79
2022/03/08 05:26:43;;;;;;;182.20;40.90;;;2.20;64.80;;;;;;5001628;28;20108;-79
2022/03/08 05:29:10;;;;;;;116.05;32.53;;;2.20;65.20;;;;;;4999637;28;20069;-79
2022/03/08 05:31:37;;;;;;;43.15;15.00;;;2.20;64.60;;;;;;5000788;28;20054;-80
2022/03/08 05:34:05;;;;;;;31.85;11.05;;;2.00;64.80;;;;;;4986703;28;20054;-80
2022/03/08 05:36:33;;;;;;;33.15;11.20;;;2.20;65.10;;;;;;5000620;28;20138;-79
2022/03/08 05:39:00;;;;;;;27.38;10.80;;;2.00;65.00;;;;;;4999759;28;20810;-79
2022/03/08 05:41:28;;;;;;;40.85;13.93;;;2.20;65.00;;;;;;5000919;28;20049;-80
2022/03/08 05:43:55;;;;;;;47.47;15.80;;;2.20;64.80;;;;;;5017818;28;20049;-80
2022/03/08 05:46:22;;;;;;;47.10;15.40;;;2.20;65.20;;;;;;4998944;28;20224;-80
2022/03/08 05:48:49;;;;;;;60.60;17.30;;;2.30;64.90;;;;;;4998669;28;20553;-79
2022/03/08 05:51:16;;;;;;;43.83;17.10;;;2.20;64.60;;;;;;4999406;28;20054;-80
2022/03/08 05:53:43;;;;;;;48.58;17.33;;;2.30;64.60;;;;;;4979596;28;22241;-79
2022/03/08 05:56:11;;;;;;;48.20;17.52;;;1.90;65.60;;;;;;4981980;28;20493;-79
2022/03/08 05:58:38;;;;;;;53.30;17.63;;;2.10;65.70;;;;;;5000754;28;20050;-79
2022/03/08 06:01:05;;;;;;;62.95;19.45;;;1.90;65.60;;;;;;4999899;28;20464;-79
2022/03/08 06:03:32;;;;;;;68.15;21.80;;;2.00;66.40;;;;;;5002037;28;20054;-79
2022/03/08 06:05:59;;;;;;;69.30;23.00;;;2.20;66.00;;;;;;5000771;28;20125;-79
2022/03/08 06:08:27;;;;;;;60.42;19.58;;;2.30;65.70;;;;;;5014921;28;20040;-79
2022/03/08 06:10:54;;;;;;;52.15;16.50;;;2.20;65.80;;;;;;4982920;28;20041;-79
2022/03/08 06:13:21;;;;;;;59.53;17.98;;;2.30;65.50;;;;;;4998792;28;20069;-79
2022/03/08 06:15:49;;;;;;;61.28;18.23;;;2.40;64.90;;;;;;4983875;28;20137;-79
2022/03/08 06:18:16;;;;;;;46.13;16.77;;;2.50;64.70;;;;;;5001443;28;20147;-79
2022/03/08 06:20:43;;;;;;;48.03;17.67;;;2.60;64.50;;;;;;4987103;28;20069;-80
2022/03/08 06:23:10;;;;;;;48.92;17.40;;;2.60;64.30;;;;;;4983955;28;20864;-79
2022/03/08 06:25:38;;;;;;;52.47;16.15;;;2.20;65.10;;;;;;4984726;28;20050;-79
2022/03/08 06:28:06;;;;;;;40.42;14.52;;;2.40;65.50;;;;;;5002072;28;20045;-79
2022/03/08 06:30:33;;;;;;;40.97;15.98;;;2.50;65.30;;;;;;4999227;28;20038;-79
2022/03/08 06:33:00;;;;;;;42.55;16.20;;;2.90;64.80;;;;;;5000622;28;20038;-80
2022/03/08 06:35:27;;;;;;;36.60;15.20;;;2.80;64.70;;;;;;5017175;28;20479;-80
2022/03/08 06:37:57;;;;;;;40.72;15.13;;;2.70;65.30;;;;;;4999457;28;20034;-79
2022/03/08 06:40:24;;;;;;;37.13;14.55;;;2.60;66.10;;;;;;5015000;28;20081;-80
2022/03/08 06:42:51;;;;;;;45.25;15.32;;;2.60;66.40;;;;;;4999693;28;20117;-79
2022/03/08 06:45:18;;;;;;;38.05;15.30;;;2.90;66.20;;;;;;4996583;28;20632;-79
2022/03/08 06:47:45;;;;;;;42.55;15.52;;;3.20;65.90;;;;;;4986119;28;20058;-79
2022/03/08 06:50:13;;;;;;;34.25;12.60;;;3.30;65.30;;;;;;4997425;28;20041;-80
2022/03/08 06:52:40;;;;;;;34.80;13.93;;;3.30;65.50;;;;;;4995433;28;21052;-79
2022/03/08 06:55:07;;;;;;;37.55;13.45;;;3.30;65.30;;;;;;4997570;28;20119;-79
2022/03/08 06:57:34;;;;;;;36.00;12.40;;;3.50;65.10;;;;;;4997709;28;20049;-80
2022/03/08 07:04:47;;;;;;;30.48;10.18;;;3.50;65.50;;;;;;4979410;28;20557;-79
2022/03/08 07:07:14;;;;;;;25.00;9.80;;;3.60;64.80;;;;;;4987047;28;20049;-79
2022/03/08 07:09:41;;;;;;;30.05;10.32;;;3.80;64.80;;;;;;4998132;28;20045;-79
2022/03/08 07:12:09;;;;;;;24.00;9.50;;;4.00;64.60;;;;;;4999008;28;20049;-79
2022/03/08 07:14:38;;;;;;;30.45;11.55;;;4.10;64.00;;;;;;4997585;28;20046;-79
2022/03/08 07:17:05;;;;;;;24.85;9.85;;;4.20;63.40;;;;;;4981117;28;20042;-79
2022/03/08 07:19:32;;;;;;;25.00;10.10;;;4.30;63.60;;;;;;5014042;28;20494;-79
2022/03/08 07:21:59;;;;;;;22.75;9.65;;;4.40;62.80;;;;;;5014305;28;20664;-80
2022/03/08 07:24:26;;;;;;;18.10;8.73;;;4.40;62.20;;;;;;5014041;28;20034;-79
2022/03/08 07:26:54;;;;;;;22.63;8.98;;;4.60;62.00;;;;;;4985226;28;20105;-80
2022/03/08 07:29:21;;;;;;;22.45;8.20;;;4.70;61.90;;;;;;4998454;28;20050;-80
2022/03/08 07:31:48;;;;;;;19.83;8.13;;;4.60;62.00;;;;;;4982277;28;20046;-80
2022/03/08 07:34:15;;;;;;;20.15;8.13;;;4.60;62.00;;;;;;4995557;28;20050;-80
2022/03/08 07:36:42;;;;;;;19.67;7.40;;;4.80;61.60;;;;;;5000964;28;20057;-80
2022/03/08 07:39:09;;;;;;;21.58;7.93;;;4.90;61.30;;;;;;4986893;28;20064;-80
2022/03/08 07:41:36;;;;;;;18.75;8.35;;;5.00;61.10;;;;;;5019164;28;20148;-80
2022/03/08 07:44:03;;;;;;;22.95;8.65;;;5.00;61.60;;;;;;5000678;28;20038;-80
2022/03/08 07:46:31;;;;;;;19.75;8.07;;;5.20;61.30;;;;;;5001250;28;20062;-80
2022/03/08 07:48:58;;;;;;;22.75;8.50;;;5.10;60.80;;;;;;5019102;28;20069;-80
2022/03/08 07:51:45;;;;;;;25.33;8.43;;;5.10;60.10;;;;;;5016661;28;20611;-80
2022/03/08 07:54:13;;;;;;;24.05;8.93;;;5.40;59.80;;;;;;5003301;28;20042;-80
2022/03/08 07:56:40;;;;;;;28.92;9.60;;;5.30;59.80;;;;;;4985346;28;20046;-79
2022/03/08 07:59:07;;;;;;;23.33;9.30;;;5.20;60.00;;;;;;5001945;28;20112;-79
2022/03/08 08:01:34;;;;;;;22.58;9.07;;;5.40;60.70;;;;;;5001374;28;20042;-80
2022/03/08 08:04:02;;;;;;;25.58;8.98;;;5.60;59.60;;;;;;5019191;28;20547;-80
2022/03/08 08:06:29;;;;;;;20.65;8.45;;;5.70;59.50;;;;;;4988523;28;20054;-80
2022/03/08 08:08:56;;;;;;;24.63;9.10;;;5.80;59.20;;;;;;5002430;28;20049;-80
2022/03/08 08:11:24;;;;;;;22.10;8.57;;;5.90;58.80;;;;;;5000603;28;20048;-79
2022/03/08 08:13:52;;;;;;;20.90;8.70;;;6.00;58.60;;;;;;5005826;28;20054;-79
2022/03/08 08:16:20;;;;;;;23.15;9.63;;;5.70;59.60;;;;;;5017412;28;20103;-79
2022/03/08 08:18:47;;;;;;;20.90;8.52;;;5.70;59.70;;;;;;5019599;28;20043;-79
2022/03/08 08:21:14;;;;;;;21.50;8.00;;;5.90;59.10;;;;;;5000688;28;20068;-80
2022/03/08 08:23:41;;;;;;;19.33;8.45;;;5.90;59.20;;;;;;4988177;28;20045;-79
2022/03/08 08:26:09;;;;;;;20.15;7.30;;;6.10;59.00;;;;;;4987166;28;20406;-80
2022/03/08 08:28:36;;;;;;;16.80;6.65;;;6.10;58.80;;;;;;5020604;28;20045;-80
2022/03/08 08:31:03;;;;;;;21.85;7.75;;;6.20;59.30;;;;;;5019270;28;20038;-80
2022/03/08 08:33:31;;;;;;;16.80;7.35;;;6.40;59.20;;;;;;5003609;28;20046;-80
2022/03/08 08:35:58;;;;;;;16.58;6.75;;;6.70;57.60;;;;;;4986462;28;20132;-80
2022/03/08 08:38:25;;;;;;;13.75;5.93;;;6.80;58.10;;;;;;5001372;28;20057;-80
2022/03/08 08:40:52;;;;;;;14.23;5.45;;;6.90;57.60;;;;;;5002526;28;20149;-80
2022/03/08 08:43:19;;;;;;;15.63;6.22;;;7.00;57.30;;;;;;5018780;28;20865;-80
2022/03/08 08:45:51;;;;;;;16.08;5.30;;;7.00;57.20;;;;;;5003508;28;20045;-80
2022/03/08 08:48:20;;;;;;;13.63;5.22;;;7.10;57.00;;;;;;5001992;28;20046;-80
2022/03/08 08:50:47;;;;;;;11.23;5.93;;;7.20;56.80;;;;;;5003730;28;20053;-80
2022/03/08 08:53:15;;;;;;;16.00;6.53;;;7.30;56.90;;;;;;4986102;28;20042;-80
2022/03/08 08:55:42;;;;;;;18.73;7.00;;;7.40;55.30;;;;;;5004207;28;20057;-79
2022/03/08 08:58:09;;;;;;;15.82;6.50;;;7.50;55.50;;;;;;5003169;28;20056;-78
2022/03/08 09:00:36;;;;;;;15.48;7.35;;;7.80;55.70;;;;;;4998390;28;20056;-78
2022/03/08 09:03:06;;;;;;;13.52;6.40;;;7.90;55.30;;;;;;5000608;28;20054;-78
2022/03/08 09:05:34;;;;;;;15.48;6.15;;;7.90;54.80;;;;;;4982302;28;20046;-79
2022/03/08 09:08:05;;;;;;;13.05;6.70;;;8.10;54.80;;;;;;5002017;28;20048;-78
2022/03/08 09:10:32;;;;;;;15.32;6.07;;;8.10;53.60;;;;;;4999355;28;20100;-79
2022/03/08 09:12:59;;;;;;;14.57;6.85;;;8.30;53.80;;;;;;4999035;28;20644;-79
2022/03/08 09:15:26;;;;;;;16.98;6.53;;;8.50;53.30;;;;;;5002379;28;20052;-78
2022/03/08 09:17:53;;;;;;;13.45;5.78;;;8.60;53.00;;;;;;5000361;28;20053;-78
2022/03/08 09:20:20;;;;;;;13.32;5.63;;;8.70;54.00;;;;;;4995675;28;20725;-78
2022/03/08 09:23:08;;;;;;;13.93;5.95;;;8.80;53.20;;;;;;4985701;28;20133;-79
2022/03/08 09:25:36;;;;;;;13.43;6.15;;;8.90;52.80;;;;;;5012238;28;20078;-78
2022/03/08 09:28:06;;;;;;;13.48;5.82;;;9.10;53.30;;;;;;5000010;28;20440;-79
2022/03/08 09:30:35;;;;;;;13.50;6.88;;;9.20;51.60;;;;;;4999518;28;20057;-78
2022/03/08 09:33:03;;;;;;;12.38;6.63;;;9.20;51.90;;;;;;5016007;28;20908;-78
2022/03/08 09:35:31;;;;;;;18.63;7.05;;;9.30;51.50;;;;;;4997604;28;20076;-79
2022/03/08 09:37:58;;;;;;;11.48;4.93;;;9.30;50.90;;;;;;4994902;28;20054;-79
2022/03/08 09:40:26;;;;;;;11.05;4.55;;;9.30;50.40;;;;;;4998724;28;20173;-78
2022/03/08 09:42:53;;;;;;;9.13;3.53;;;9.30;49.50;;;;;;5000586;28;20041;-78
2022/03/08 09:45:21;;;;;;;9.43;3.67;;;9.40;49.50;;;;;;4998211;28;20054;-78
2022/03/08 09:47:49;;;;;;;9.77;4.50;;;9.40;49.50;;;;;;4998089;28;20096;-78
2022/03/08 09:50:16;;;;;;;11.95;4.82;;;9.40;50.20;;;;;;4995767;28;20038;-78
2022/03/08 09:52:46;;;;;;;8.65;3.97;;;9.40;48.10;;;;;;5011232;28;21039;-77
2022/03/08 09:55:16;;;;;;;6.68;2.75;;;9.40;48.30;;;;;;4999172;28;20050;-77
2022/03/08 09:57:43;;;;;;;9.15;3.80;;;9.50;48.40;;;;;;4998031;28;20593;-77
2022/03/08 10:00:12;;;;;;;7.68;3.63;;;9.70;49.00;;;;;;4994783;28;20204;-77
2022/03/08 10:02:52;;;;;;;8.35;3.97;;;9.80;48.70;;;;;;5012195;28;20054;-77
2022/03/08 10:05:28;;;;;;;8.48;3.25;;;9.90;48.60;;;;;;4998921;28;20061;-77
2022/03/08 10:08:13;;;;;;;10.95;4.53;;;10.00;48.80;;;;;;4999408;28;20485;-78
2022/03/08 10:10:58;;;;;;;9.07;3.67;;;9.80;47.30;;;;;;4997823;28;20615;-78
2022/03/08 10:13:50;;;;;;;11.48;4.45;;;9.50;48.00;;;;;;4994908;28;20050;-78
2022/03/08 10:16:24;;;;;;;12.77;5.45;;;9.50;48.10;;;;;;5001418;28;20549;-78
2022/03/08 10:19:02;;;;;;;8.32;3.60;;;9.50;47.90;;;;;;4998435;28;20522;-77
2022/03/08 10:21:43;;;;;;;6.78;2.45;;;9.40;46.60;;;;;;4999788;28;20140;-79
2022/03/08 10:24:20;;;;;;;5.57;2.50;;;9.50;45.50;;;;;;4999547;28;20058;-78
2022/03/08 10:26:52;;;;;;;5.95;1.90;;;9.60;45.70;;;;;;5000188;28;20049;-78
2022/03/08 10:29:39;;;;;;;5.85;1.88;;;9.80;45.10;;;;;;5001804;28;20042;-79
2022/03/08 10:32:15;;;;;;;4.75;1.50;;;10.00;42.80;;;;;;4979205;28;20527;-77
2022/03/08 10:34:45;;;;;;;4.47;1.25;;;10.20;42.70;;;;;;5001322;28;20057;-78
2022/03/08 10:37:19;;;;;;;4.35;2.13;;;10.30;42.50;;;;;;5018294;28;20050;-77
2022/03/08 10:39:56;;;;;;;6.13;2.60;;;10.50;43.30;;;;;;5008989;28;20053;-77
2022/03/08 10:42:31;;;;;;;4.93;1.92;;;10.50;41.30;;;;;;4980161;28;20556;-77
2022/03/08 10:45:09;;;;;;;5.05;2.47;;;10.40;42.10;;;;;;5009279;28;20100;-77
2022/03/08 10:47:46;;;;;;;8.25;2.20;;;10.30;42.40;;;;;;5012078;28;20643;-77
2022/03/08 10:50:16;;;;;;;4.72;1.70;;;10.10;41.80;;;;;;4995284;28;20038;-77
2022/03/08 10:52:45;;;;;;;4.10;1.85;;;10.00;42.20;;;;;;4981248;28;20041;-77
2022/03/08 10:55:17;;;;;;;3.78;1.30;;;9.90;42.00;;;;;;4997055;28;20061;-77
2022/03/08 10:57:50;;;;;;;5.90;1.83;;;9.60;42.80;;;;;;4995326;28;20049;-77
2022/03/08 11:00:20;;;;;;;5.50;2.30;;;9.40;42.50;;;;;;4994955;28;20050;-78
2022/03/08 11:03:01;;;;;;;7.85;2.60;;;9.30;44.60;;;;;;4999997;28;20050;-80
2022/03/08 11:05:40;;;;;;;4.47;2.00;;;9.30;44.60;;;;;;4983576;28;20073;-76
2022/03/08 11:08:08;;;;;;;5.03;1.85;;;9.40;44.00;;;;;;5001525;28;20038;-80
2022/03/08 11:10:38;;;;;;;6.15;1.77;;;9.50;43.60;;;;;;4997441;28;20050;-80
2022/03/08 11:13:07;;;;;;;3.65;1.40;;;9.50;43.10;;;;;;4997669;28;20506;-80
2022/03/08 11:15:36;;;;;;;3.20;1.08;;;9.60;42.80;;;;;;4983147;28;20050;-80
2022/03/08 11:18:08;;;;;;;2.50;0.93;;;9.50;41.80;;;;;;4984738;28;20043;-79
2022/03/08 11:20:37;;;;;;;2.70;1.20;;;9.50;41.60;;;;;;4995633;28;20081;-80
2022/03/08 11:23:07;;;;;;;5.32;1.40;;;9.60;42.30;;;;;;4979829;28;20903;-77
2022/03/08 11:25:44;;;;;;;3.35;1.35;;;9.60;42.40;;;;;;5011488;28;20045;-78
2022/03/08 11:28:25;;;;;;;5.30;1.33;;;9.60;42.60;;;;;;4991747;28;20168;-78
2022/03/08 11:30:58;;;;;;;5.70;1.67;;;9.70;43.00;;;;;;4993197;28;20042;-78
2022/03/08 11:33:58;;;;;;;3.47;0.95;;;9.70;42.90;;;;;;4997905;28;20121;-78
2022/03/08 11:36:33;;;;;;;6.25;1.45;;;9.70;42.40;;;;;;4992711;28;20257;-78
2022/03/08 11:39:17;;;;;;;3.95;1.48;;;9.70;42.50;;;;;;4994522;28;20054;-78
2022/03/08 11:41:50;;;;;;;4.60;1.05;;;9.60;42.30;;;;;;4995891;28;20044;-78
2022/03/08 11:44:21;;;;;;;2.53;0.82;;;9.80;42.30;;;;;;4993358;28;20055;-78
2022/03/08 11:47:09;;;;;;;2.42;0.45;;;9.80;42.90;;;;;;5009858;28;20169;-80
2022/03/08 11:49:40;;;;;;;2.75;1.02;;;9.70;41.90;;;;;;4994899;28;20042;-79
2022/03/08 11:52:20;;;;;;;3.80;1.10;;;9.90;42.80;;;;;;5011900;28;20482;-79
2022/03/08 11:54:58;;;;;;;4.32;1.33;;;10.00;41.90;;;;;;4980014;28;20050;-78
2022/03/08 11:57:44;;;;;;;4.25;1.08;;;10.10;42.00;;;;;;5013170;28;20060;-78
2022/03/08 12:00:21;;;;;;;2.58;0.93;;;10.10;40.70;;;;;;5013252;28;20050;-78
2022/03/08 12:02:52;;;;;;;1.75;0.60;;;9.90;39.50;;;;;;4991030;28;20112;-78
2022/03/08 12:05:40;;;;;;;1.73;0.75;;;9.90;40.20;;;;;;4993998;28;20137;-78
2022/03/08 12:08:32;;;;;;;2.72;0.88;;;9.70;41.00;;;;;;4996557;28;20045;-80
2022/03/08 12:11:01;;;;;;;2.15;0.80;;;9.70;40.50;;;;;;4997051;28;20057;-80
2022/03/08 12:13:40;;;;;;;2.25;0.90;;;9.70;40.80;;;;;;4996166;28;20088;-79
2022/03/08 12:16:08;;;;;;;2.03;0.57;;;9.70;40.80;;;;;;4983898;28;20052;-79
2022/03/08 12:18:50;;;;;;;3.33;0.95;;;9.80;40.20;;;;;;5001511;28;20054;-79
2022/03/08 12:21:17;;;;;;;2.88;0.70;;;9.90;40.90;;;;;;4994114;28;20050;-79
2022/03/08 12:24:02;;;;;;;2.33;0.52;;;9.90;40.40;;;;;;4998674;28;20126;-80
2022/03/08 12:26:48;;;;;;;4.40;1.08;;;9.80;40.20;;;;;;5011266;28;20053;-79
2022/03/08 12:29:56;;;;;;;5.75;1.35;;;9.80;40.30;;;;;;5010743;28;20042;-77
2022/03/08 12:32:39;;;;;;;8.40;1.77;;;9.90;40.40;;;;;;4998917;28;20112;-77
2022/03/08 12:35:20;;;;;;;2.42;0.77;;;10.00;40.60;;;;;;5010050;28;20065;-77
2022/03/08 12:38:07;;;;;;;2.70;0.82;;;10.00;40.40;;;;;;4980762;28;20053;-79
2022/03/08 12:40:37;;;;;;;2.33;0.70;;;10.00;40.40;;;;;;4998412;28;20041;-77
2022/03/08 12:43:09;;;;;;;2.22;0.63;;;9.90;40.20;;;;;;5000532;28;20042;-78
2022/03/08 12:45:48;;;;;;;2.40;0.70;;;9.80;40.70;;;;;;4997502;28;20064;-78
2022/03/08 12:48:18;;;;;;;4.80;0.68;;;10.00;40.50;;;;;;5014092;28;20651;-77
2022/03/08 12:50:49;;;;;;;2.28;0.73;;;10.00;38.80;;;;;;4994731;28;20037;-77
2022/03/08 12:53:25;;;;;;;3.22;1.05;;;9.90;40.30;;;;;;4995938;28;20053;-77
2022/03/08 12:56:01;;;;;;;1.75;0.90;;;10.00;39.80;;;;;;4997586;28;20303;-79
2022/03/08 12:58:39;;;;;;;3.80;1.10;;;10.00;39.00;;;;;;5005362;28;20052;-77
2022/03/08 13:01:13;;;;;;;4.57;1.20;;;10.00;38.90;;;;;;5000956;28;20053;-78
2022/03/08 13:03:47;;;;;;;3.20;1.10;;;9.80;38.60;;;;;;4999574;28;20493;-80